createdAt,value
2018-03-17T00:02:14.905Z,59.99
2018-03-17T00:04:41.262Z,59.78
2018-03-17T00:07:07.702Z,59.72
2018-03-17T00:09:34.057Z,59.85
2018-03-17T00:12:00.422Z,59.96
2018-03-17T00:14:26.790Z,60.08
2018-03-17T00:16:53.206Z,60.86
2018-03-17T00:19:19.594Z,60.40
2018-03-17T00:21:45.942Z,60.09
2018-03-17T00:24:12.282Z,60.09
2018-03-17T00:26:38.647Z,60.06
2018-03-17T00:29:04.978Z,60.86
2018-03-17T00:31:31.338Z,60.12
2018-03-17T00:33:57.702Z,60.28
2018-03-17T00:36:24.029Z,60.36
2018-03-17T00:38:50.370Z,60.35
2018-03-17T00:41:16.785Z,60.84
2018-03-17T00:43:43.158Z,60.48
2018-03-17T00:46:12.472Z,60.73
2018-03-17T00:48:38.979Z,60.57
2018-03-17T00:51:05.359Z,60.41
2018-03-17T00:53:31.742Z,60.07
2018-03-17T00:55:58.148Z,60.40
2018-03-17T00:58:24.550Z,60.56
2018-03-17T01:00:50.998Z,60.75
2018-03-17T01:03:17.426Z,60.74
2018-03-17T01:05:43.858Z,64.86
2018-03-17T01:08:10.278Z,60.99
2018-03-17T01:10:36.658Z,60.92
2018-03-17T01:13:03.074Z,61.13
2018-03-17T01:15:29.449Z,62.01
2018-03-17T01:17:55.966Z,62.33
2018-03-17T01:20:22.390Z,61.54
2018-03-17T01:22:48.833Z,61.35
2018-03-17T01:25:15.198Z,61.21
2018-03-17T01:27:41.576Z,60.72
2018-03-17T01:30:07.954Z,60.93
2018-03-17T01:32:34.443Z,61.06
2018-03-17T01:35:00.794Z,61.08
2018-03-17T01:37:27.145Z,61.39
2018-03-17T01:39:53.751Z,61.64
2018-03-17T01:42:20.353Z,61.98
2018-03-17T01:44:46.697Z,61.86
2018-03-17T01:47:13.078Z,62.16
2018-03-17T01:49:39.454Z,62.29
2018-03-17T01:52:05.797Z,62.27
2018-03-17T01:54:32.297Z,62.80
2018-03-17T01:56:58.750Z,63.65
2018-03-17T01:59:25.292Z,67.72
2018-03-17T02:01:51.705Z,62.81
2018-03-17T02:04:18.106Z,64.02
2018-03-17T02:06:44.465Z,70.93
2018-03-17T02:09:10.929Z,63.79
2018-03-17T02:11:37.305Z,69.51
2018-03-17T02:14:03.737Z,64.27
2018-03-17T02:16:30.122Z,63.67
2018-03-17T02:18:56.517Z,63.37
2018-03-17T02:21:22.906Z,62.92
2018-03-17T02:23:49.325Z,66.92
2018-03-17T02:26:15.697Z,63.78
2018-03-17T02:28:42.117Z,62.99
2018-03-17T02:31:08.484Z,63.02
2018-03-17T02:33:34.922Z,64.39
2018-03-17T02:36:01.263Z,64.57
2018-03-17T02:38:27.662Z,64.40
2018-03-17T02:40:54.046Z,63.56
2018-03-17T02:43:20.409Z,63.47
2018-03-17T02:45:46.796Z,62.89
2018-03-17T02:48:13.222Z,62.71
2018-03-17T02:50:39.574Z,62.83
2018-03-17T02:53:05.915Z,63.44
2018-03-17T02:55:32.313Z,63.74
2018-03-17T02:57:58.669Z,63.01
2018-03-17T03:00:25.059Z,62.74
2018-03-17T03:02:51.418Z,62.78
2018-03-17T03:05:17.790Z,62.85
2018-03-17T03:07:44.130Z,62.69
2018-03-17T03:10:10.506Z,65.24
2018-03-17T03:12:36.878Z,62.85
2018-03-17T03:15:03.294Z,63.07
2018-03-17T03:17:29.671Z,63.43
2018-03-17T03:19:56.163Z,62.58
2018-03-17T03:22:22.530Z,62.61
2018-03-17T03:24:48.881Z,62.63
2018-03-17T03:27:15.278Z,62.47
2018-03-17T03:29:41.646Z,62.87
2018-03-17T03:32:08.002Z,63.07
2018-03-17T03:34:34.409Z,63.23
2018-03-17T03:37:00.768Z,63.21
2018-03-17T03:39:27.201Z,63.41
2018-03-17T03:41:53.583Z,63.17
2018-03-17T03:44:20.083Z,63.53
2018-03-17T03:46:46.520Z,63.04
2018-03-17T03:49:12.934Z,62.99
2018-03-17T03:51:39.445Z,67.14
2018-03-17T03:54:05.857Z,62.94
2018-03-17T03:56:32.261Z,63.34
2018-03-17T03:58:58.654Z,63.31
2018-03-17T04:01:25.078Z,65.04
2018-03-17T04:03:51.509Z,63.64
2018-03-17T04:06:18.049Z,63.04
2018-03-17T04:08:44.462Z,63.20
2018-03-17T04:11:10.873Z,63.45
2018-03-17T04:13:37.309Z,64.03
2018-03-17T04:16:03.742Z,62.80
2018-03-17T04:18:30.166Z,63.08
2018-03-17T04:20:56.582Z,63.16
2018-03-17T04:23:23.018Z,63.68
2018-03-17T04:25:49.381Z,63.00
2018-03-17T04:28:15.766Z,63.19
2018-03-17T04:30:42.145Z,63.04
2018-03-17T04:33:08.494Z,62.87
2018-03-17T04:35:34.857Z,63.31
2018-03-17T04:38:01.262Z,63.59
2018-03-17T04:40:27.709Z,64.50
2018-03-17T04:42:54.117Z,63.73
2018-03-17T04:45:20.520Z,63.27
2018-03-17T04:47:46.873Z,63.57
2018-03-17T04:50:13.223Z,63.48
2018-03-17T04:52:39.593Z,63.95
2018-03-17T04:55:05.957Z,64.51
2018-03-17T04:57:32.405Z,64.59
2018-03-17T04:59:58.815Z,65.97
2018-03-17T05:02:25.198Z,64.46
2018-03-17T05:04:51.564Z,64.91
2018-03-17T05:07:17.977Z,64.68
2018-03-17T05:09:44.374Z,64.71
2018-03-17T05:12:10.766Z,63.85
2018-03-17T05:14:37.131Z,64.05
2018-03-17T05:17:03.539Z,64.27
2018-03-17T05:19:29.910Z,64.75
2018-03-17T05:21:56.294Z,64.11
2018-03-17T05:24:22.658Z,64.23
2018-03-17T05:26:49.079Z,64.44
2018-03-17T05:29:15.440Z,64.56
2018-03-17T05:31:41.971Z,64.55
2018-03-17T05:34:08.357Z,64.29
2018-03-17T05:36:34.814Z,64.06
2018-03-17T05:39:01.226Z,65.82
2018-03-17T05:41:27.887Z,64.74
2018-03-17T05:43:54.305Z,64.85
2018-03-17T05:46:20.753Z,65.80
2018-03-17T05:48:47.145Z,64.93
2018-03-17T05:51:13.548Z,64.88
2018-03-17T05:53:39.886Z,65.23
2018-03-17T05:56:06.243Z,65.59
2018-03-17T05:58:32.761Z,65.13
2018-03-17T06:00:59.210Z,65.21
2018-03-17T06:03:25.633Z,65.90
2018-03-17T06:05:51.990Z,65.86
2018-03-17T06:08:18.366Z,66.08
2018-03-17T06:10:44.758Z,67.65
2018-03-17T06:13:11.145Z,66.38
2018-03-17T06:15:37.522Z,65.80
2018-03-17T06:18:03.914Z,65.72
2018-03-17T06:20:30.306Z,70.45
2018-03-17T06:22:56.711Z,65.62
2018-03-17T06:25:23.095Z,65.54
2018-03-17T06:27:49.532Z,65.46
2018-03-17T06:30:15.939Z,65.45
2018-03-17T06:32:42.335Z,65.68
2018-03-17T06:35:08.722Z,65.76
2018-03-17T06:37:35.114Z,66.01
2018-03-17T06:40:01.569Z,66.21
2018-03-17T06:42:28.064Z,66.87
2018-03-17T06:44:54.463Z,66.62
2018-03-17T06:47:21.075Z,68.38
2018-03-17T06:49:47.451Z,69.42
2018-03-17T06:52:13.870Z,68.82
2018-03-17T06:54:40.245Z,66.21
2018-03-17T06:57:06.637Z,64.77
2018-03-17T06:59:33.149Z,64.37
2018-03-17T07:01:59.544Z,64.26
2018-03-17T07:04:26.293Z,67.29
2018-03-17T07:06:52.691Z,65.77
2018-03-17T07:09:19.077Z,66.60
2018-03-17T07:11:45.714Z,66.03
2018-03-17T07:14:12.142Z,66.87
2018-03-17T07:16:38.638Z,66.94
2018-03-17T07:19:05.057Z,62.70
2018-03-17T07:21:31.510Z,64.46
2018-03-17T07:23:57.916Z,63.06
2018-03-17T07:26:24.379Z,64.24
2018-03-17T07:28:50.898Z,61.68
2018-03-17T07:31:17.327Z,61.65
2018-03-17T07:33:43.750Z,61.19
2018-03-17T07:36:10.138Z,65.00
2018-03-17T07:38:36.510Z,64.67
2018-03-17T07:41:02.954Z,62.67
2018-03-17T07:43:29.354Z,62.13
2018-03-17T07:45:55.750Z,61.09
2018-03-17T07:48:22.153Z,62.35
2018-03-17T07:50:48.501Z,61.57
2018-03-17T07:53:14.878Z,61.31
2018-03-17T07:55:41.241Z,61.69
2018-03-17T07:58:07.706Z,62.75
2018-03-17T08:00:34.098Z,62.18
2018-03-17T08:03:00.530Z,62.30
2018-03-17T08:05:26.973Z,61.95
2018-03-17T08:07:53.371Z,61.50
2018-03-17T08:10:19.748Z,61.71
2018-03-17T08:12:46.177Z,61.63
2018-03-17T08:15:12.609Z,60.78
2018-03-17T08:17:38.986Z,62.11
2018-03-17T08:20:05.445Z,60.87
2018-03-17T08:22:32.213Z,61.37
2018-03-17T08:24:58.614Z,62.08
2018-03-17T08:27:25.025Z,63.47
2018-03-17T08:29:51.496Z,62.81
2018-03-17T08:32:17.870Z,61.75
2018-03-17T08:34:44.280Z,63.23
2018-03-17T08:37:10.758Z,63.88
2018-03-17T08:39:37.294Z,64.31
2018-03-17T08:42:03.669Z,63.90
2018-03-17T08:44:30.034Z,62.50
2018-03-17T08:46:56.398Z,62.28
2018-03-17T08:49:23.233Z,62.08
2018-03-17T08:51:49.799Z,62.27
2018-03-17T08:54:16.201Z,62.55
2018-03-17T08:56:42.594Z,63.14
2018-03-17T08:59:09.003Z,61.23
2018-03-17T09:01:35.386Z,62.12
2018-03-17T09:04:01.841Z,62.43
2018-03-17T09:06:28.273Z,62.42
2018-03-17T09:08:54.666Z,62.74
2018-03-17T09:11:21.097Z,61.99
2018-03-17T09:13:47.442Z,62.37
2018-03-17T09:16:13.798Z,58.97
2018-03-17T09:18:40.209Z,57.02
2018-03-17T09:21:06.570Z,58.57
2018-03-17T09:23:32.914Z,57.33
2018-03-17T09:25:59.314Z,59.35
2018-03-17T09:28:25.734Z,61.29
2018-03-17T09:30:52.113Z,62.27
2018-03-17T09:33:18.577Z,62.10
2018-03-17T09:35:44.986Z,61.24
2018-03-17T09:38:11.385Z,60.50
2018-03-17T09:40:37.750Z,59.97
2018-03-17T09:43:04.191Z,60.21
2018-03-17T09:45:30.982Z,61.18
2018-03-17T09:47:57.350Z,59.22
2018-03-17T09:50:23.738Z,57.91
2018-03-17T09:52:50.118Z,58.96
2018-03-17T09:55:16.527Z,59.51
2018-03-17T09:57:42.922Z,60.20
2018-03-17T10:00:09.290Z,57.31
2018-03-17T10:02:35.642Z,58.33
2018-03-17T10:05:02.014Z,59.17
2018-03-17T10:07:28.389Z,59.83
2018-03-17T10:09:54.798Z,58.14
2018-03-17T10:12:21.214Z,57.66
2018-03-17T10:14:47.619Z,58.18
2018-03-17T10:17:14.069Z,56.67
2018-03-17T10:19:40.409Z,55.48
2018-03-17T10:22:06.758Z,58.16
2018-03-17T10:24:33.091Z,56.12
2018-03-17T10:26:59.722Z,55.71
2018-03-17T10:29:26.849Z,58.24
2018-03-17T10:31:53.397Z,60.91
2018-03-17T10:34:19.727Z,58.99
2018-03-17T10:36:46.152Z,58.07
2018-03-17T10:39:12.514Z,57.68
2018-03-17T10:41:38.921Z,60.97
2018-03-17T10:44:05.294Z,60.59
2018-03-17T10:46:31.651Z,59.48
2018-03-17T10:48:58.086Z,59.53
2018-03-17T10:51:24.498Z,60.45
2018-03-17T10:53:50.885Z,61.39
2018-03-17T10:56:17.275Z,60.19
2018-03-17T10:58:43.670Z,58.53
2018-03-17T11:01:16.081Z,58.90
2018-03-17T11:03:42.443Z,59.86
2018-03-17T11:06:08.907Z,58.82
2018-03-17T11:08:35.406Z,58.64
2018-03-17T11:11:01.802Z,57.80
2018-03-17T11:13:28.171Z,60.32
2018-03-17T11:15:54.558Z,60.54
2018-03-17T11:18:20.888Z,59.39
2018-03-17T11:20:47.277Z,61.14
2018-03-17T11:23:13.665Z,58.79
2018-03-17T11:25:40.043Z,59.70
2018-03-17T11:28:06.438Z,61.05
2018-03-17T11:30:33.014Z,59.44
2018-03-17T11:32:59.469Z,58.70
2018-03-17T11:35:25.885Z,58.88
2018-03-17T11:37:52.244Z,60.04
2018-03-17T11:40:18.622Z,60.47
2018-03-17T11:42:45.053Z,61.34
2018-03-17T11:45:11.414Z,60.54
2018-03-17T11:47:37.758Z,60.71
2018-03-17T11:50:04.119Z,60.15
2018-03-17T11:52:30.586Z,59.84
2018-03-17T11:54:56.993Z,58.85
2018-03-17T11:57:23.350Z,57.78
2018-03-17T11:59:49.694Z,55.64
2018-03-17T12:02:16.138Z,58.53
2018-03-17T12:04:42.486Z,57.39
2018-03-17T12:07:08.914Z,55.48
2018-03-17T12:09:35.354Z,55.95
2018-03-17T12:12:01.710Z,56.45
2018-03-17T12:14:28.091Z,57.26
2018-03-17T12:16:54.487Z,57.01
2018-03-17T12:19:20.850Z,56.72
2018-03-17T12:21:47.217Z,55.82
2018-03-17T12:24:13.573Z,57.17
2018-03-17T12:26:39.982Z,57.65
2018-03-17T12:29:06.459Z,57.07
2018-03-17T12:31:32.778Z,57.05
2018-03-17T12:33:59.210Z,57.39
2018-03-17T12:36:25.595Z,59.07
2018-03-17T12:38:51.941Z,60.17
2018-03-17T12:41:18.962Z,59.07
2018-03-17T12:43:45.394Z,60.14
2018-03-17T12:46:11.822Z,59.32
2018-03-17T12:48:38.234Z,59.25
2018-03-17T12:51:04.695Z,60.33
2018-03-17T12:53:31.077Z,61.69
2018-03-17T12:55:57.558Z,60.60
2018-03-17T12:58:24.147Z,59.74
2018-03-17T13:00:50.594Z,60.75
2018-03-17T13:03:16.955Z,59.33
2018-03-17T13:05:43.346Z,56.15
2018-03-17T13:08:09.700Z,55.57
2018-03-17T13:10:36.196Z,57.43
2018-03-17T13:13:02.589Z,56.60
2018-03-17T13:15:28.959Z,58.68
2018-03-17T13:17:55.327Z,56.48
2018-03-17T13:20:21.699Z,56.34
2018-03-17T13:23:00.356Z,58.03
2018-03-17T13:25:26.854Z,57.26
2018-03-17T13:28:05.372Z,55.53
2018-03-17T13:30:31.654Z,56.85
2018-03-17T13:32:58.310Z,56.67
2018-03-17T13:35:36.797Z,55.25
2018-03-17T13:38:03.146Z,55.07
2018-03-17T13:40:31.481Z,53.79
2018-03-17T13:42:57.873Z,56.35
2018-03-17T13:45:24.230Z,55.93
2018-03-17T13:47:50.582Z,56.16
2018-03-17T13:50:17.244Z,58.13
2018-03-17T13:52:43.631Z,57.59
2018-03-17T13:55:09.975Z,53.68
2018-03-17T13:57:36.382Z,54.01
2018-03-17T14:00:02.815Z,57.89
2018-03-17T14:02:29.270Z,57.27
2018-03-17T14:04:55.659Z,54.98
2018-03-17T14:07:22.001Z,52.74
2018-03-17T14:09:48.330Z,53.02
2018-03-17T14:12:14.768Z,56.25
2018-03-17T14:14:41.118Z,54.68
2018-03-17T14:17:07.603Z,54.90
2018-03-17T14:19:33.974Z,54.15
2018-03-17T14:22:00.325Z,53.40
2018-03-17T14:24:26.998Z,53.53
2018-03-17T14:26:53.342Z,56.27
2018-03-17T14:29:19.721Z,57.06
2018-03-17T14:31:46.046Z,55.20
2018-03-17T14:34:12.425Z,54.16
2018-03-17T14:36:38.790Z,56.30
2018-03-17T14:39:05.230Z,54.57
2018-03-17T14:41:31.598Z,55.01
2018-03-17T14:43:57.940Z,55.04
2018-03-17T14:46:24.298Z,57.32
2018-03-17T14:48:50.677Z,57.65
2018-03-17T14:51:17.036Z,54.70
2018-03-17T14:53:43.509Z,53.91
2018-03-17T14:56:09.874Z,54.58
2018-03-17T14:58:36.310Z,55.64
2018-03-17T15:01:02.687Z,55.27
2018-03-17T15:03:29.065Z,57.69
2018-03-17T15:05:55.489Z,59.56
2018-03-17T15:08:21.909Z,58.91
2018-03-17T15:10:48.314Z,57.17
2018-03-17T15:13:14.691Z,55.75
2018-03-17T15:15:41.021Z,57.43
2018-03-17T15:18:07.370Z,55.41
2018-03-17T15:20:33.717Z,58.11
2018-03-17T15:23:00.050Z,57.76
2018-03-17T15:25:26.445Z,57.95
2018-03-17T15:27:52.853Z,59.89
2018-03-17T15:30:19.304Z,59.25
2018-03-17T15:32:45.660Z,59.97
2018-03-17T15:35:12.079Z,57.68
2018-03-17T15:37:38.441Z,58.59
2018-03-17T15:40:04.820Z,58.92
2018-03-17T15:42:31.153Z,61.12
2018-03-17T15:44:57.494Z,60.52
2018-03-17T15:47:23.945Z,57.92
2018-03-17T15:49:50.322Z,58.26
2018-03-17T15:52:16.662Z,61.02
2018-03-17T15:54:43.105Z,61.28
2018-03-17T15:57:09.440Z,60.42
2018-03-17T15:59:35.802Z,61.82
2018-03-17T16:02:03.030Z,62.09
2018-03-17T16:04:29.370Z,59.14
2018-03-17T16:06:55.704Z,61.59
2018-03-17T16:09:22.187Z,58.04
2018-03-17T16:11:48.534Z,60.04
2018-03-17T16:14:14.911Z,61.44
2018-03-17T16:16:41.398Z,61.73
2018-03-17T16:19:10.316Z,59.10
2018-03-17T16:21:36.930Z,58.50
2018-03-17T16:24:03.350Z,58.40
2018-03-17T16:26:29.836Z,60.31
2018-03-17T16:28:56.389Z,59.89
2018-03-17T16:31:23.514Z,58.15
2018-03-17T16:33:49.881Z,61.90
2018-03-17T16:36:16.249Z,59.01
2018-03-17T16:38:42.601Z,61.43
2018-03-17T16:41:09.078Z,59.19
2018-03-17T16:43:35.454Z,62.24
2018-03-17T16:46:01.850Z,61.54
2018-03-17T16:48:28.215Z,59.82
2018-03-17T16:50:54.636Z,62.24
2018-03-17T16:53:21.042Z,59.88
2018-03-17T16:55:47.430Z,61.12
2018-03-17T16:58:13.769Z,61.77
2018-03-17T17:00:40.246Z,62.29
2018-03-17T17:03:06.758Z,60.91
2018-03-17T17:05:33.115Z,61.11
2018-03-17T17:07:59.754Z,62.15
2018-03-17T17:10:26.282Z,64.73
2018-03-17T17:12:52.679Z,62.63
2018-03-17T17:15:19.062Z,61.32
2018-03-17T17:17:45.499Z,61.81
2018-03-17T17:20:12.029Z,61.92
2018-03-17T17:22:38.424Z,60.95
2018-03-17T17:25:04.994Z,62.40
2018-03-17T17:27:31.454Z,62.57
2018-03-17T17:29:57.967Z,61.38
2018-03-17T17:32:24.382Z,60.86
2018-03-17T17:34:50.725Z,62.36
2018-03-17T17:37:17.086Z,63.77
2018-03-17T17:39:43.449Z,61.33
2018-03-17T17:42:09.844Z,60.93
2018-03-17T17:44:36.345Z,62.60
2018-03-17T17:47:02.718Z,63.41
2018-03-17T17:49:29.107Z,60.69
2018-03-17T17:51:55.490Z,61.51
2018-03-17T17:54:22.036Z,63.80
2018-03-17T17:56:48.377Z,61.89
2018-03-17T17:59:14.777Z,60.27
2018-03-17T18:01:41.164Z,60.37
2018-03-17T18:04:16.257Z,60.72
2018-03-17T18:06:47.530Z,61.69
2018-03-17T18:09:13.878Z,60.36
2018-03-17T18:11:40.262Z,61.91
2018-03-17T18:14:06.610Z,60.34
2018-03-17T18:16:32.982Z,62.47
2018-03-17T18:18:59.464Z,63.23
2018-03-17T18:21:25.915Z,60.59
2018-03-17T18:23:52.406Z,60.24
2018-03-17T18:26:18.790Z,62.32
2018-03-17T18:28:45.151Z,61.65
2018-03-17T18:31:11.520Z,64.15
2018-03-17T18:33:37.939Z,63.81
2018-03-17T18:36:04.334Z,64.09
2018-03-17T18:38:30.749Z,62.01
2018-03-17T18:40:57.230Z,62.30
2018-03-17T18:43:23.629Z,62.39
2018-03-17T18:45:50.211Z,62.33
2018-03-17T18:48:16.652Z,61.58
2018-03-17T18:50:43.058Z,63.50
2018-03-17T18:53:09.428Z,64.16
2018-03-17T18:55:35.786Z,62.62
2018-03-17T18:58:02.258Z,63.31
2018-03-17T19:00:28.641Z,62.25
2018-03-17T19:02:54.976Z,63.35
2018-03-17T19:05:21.350Z,62.91
2018-03-17T19:07:47.724Z,63.43
2018-03-17T19:10:14.085Z,61.64
2018-03-17T19:12:40.478Z,62.54
2018-03-17T19:15:06.831Z,62.58
2018-03-17T19:17:33.254Z,62.38
2018-03-17T19:19:59.603Z,63.33
2018-03-17T19:22:26.008Z,62.26
2018-03-17T19:24:52.389Z,63.46
2018-03-17T19:27:18.726Z,63.87
2018-03-17T19:29:45.091Z,64.75
2018-03-17T19:32:11.442Z,61.63
2018-03-17T19:34:37.782Z,64.20
2018-03-17T19:37:06.119Z,62.19
2018-03-17T19:39:32.543Z,64.70
2018-03-17T19:41:58.914Z,62.09
2018-03-17T19:44:25.591Z,63.05
2018-03-17T19:46:53.059Z,62.42
2018-03-17T19:49:20.603Z,62.69
2018-03-17T19:51:47.882Z,64.41
2018-03-17T19:54:14.250Z,65.59
2018-03-17T19:56:40.642Z,63.21
2018-03-17T19:59:07.120Z,62.43
2018-03-17T20:01:33.510Z,64.03
2018-03-17T20:03:59.846Z,63.63
2018-03-17T20:06:26.214Z,63.39
2018-03-17T20:08:52.598Z,62.36
2018-03-17T20:11:19.042Z,64.06
2018-03-17T20:13:45.434Z,62.64
2018-03-17T20:16:11.778Z,64.78
2018-03-17T20:18:38.143Z,64.50
2018-03-17T20:21:04.571Z,62.01
2018-03-17T20:23:30.914Z,61.92
2018-03-17T20:25:57.270Z,62.30
2018-03-17T20:28:23.610Z,62.13
2018-03-17T20:30:49.966Z,63.41
2018-03-17T20:33:16.285Z,62.23
2018-03-17T20:35:42.618Z,62.61
2018-03-17T20:38:08.959Z,62.37
2018-03-17T20:40:35.319Z,62.55
2018-03-17T20:43:01.712Z,62.33
2018-03-17T20:45:28.207Z,63.17
2018-03-17T20:47:54.627Z,64.65
2018-03-17T20:50:20.966Z,62.54
2018-03-17T20:52:47.382Z,63.62
2018-03-17T20:55:13.718Z,62.58
2018-03-17T20:57:40.097Z,62.95
2018-03-17T21:00:06.502Z,63.06
2018-03-17T21:02:32.870Z,62.58
2018-03-17T21:04:59.243Z,64.17
2018-03-17T21:07:25.634Z,65.32
2018-03-17T21:09:52.052Z,64.32
2018-03-17T21:12:18.403Z,63.36
2018-03-17T21:14:44.791Z,63.75
2018-03-17T21:17:11.147Z,62.52
2018-03-17T21:19:37.496Z,63.02
2018-03-17T21:22:03.885Z,63.53
2018-03-17T21:24:30.238Z,63.78
2018-03-17T21:26:56.619Z,64.12
2018-03-17T21:29:23.025Z,65.10
2018-03-17T21:31:49.435Z,64.54
2018-03-17T21:34:15.793Z,62.34
2018-03-17T21:36:42.126Z,60.43
2018-03-17T21:39:08.491Z,62.46
2018-03-17T21:41:34.842Z,62.50
2018-03-17T21:44:01.252Z,64.60
2018-03-17T21:46:27.598Z,64.37
2018-03-17T21:48:54.242Z,62.06
2018-03-17T21:51:20.666Z,61.11
2018-03-17T21:53:47.033Z,64.35
2018-03-17T21:56:13.386Z,63.79
2018-03-17T21:58:39.743Z,61.99
2018-03-17T22:01:06.114Z,64.39
2018-03-17T22:03:32.477Z,64.49
2018-03-17T22:05:58.930Z,61.65
2018-03-17T22:08:25.286Z,64.32
2018-03-17T22:10:51.675Z,63.05
2018-03-17T22:13:18.090Z,63.43
2018-03-17T22:15:44.462Z,62.22
2018-03-17T22:18:10.810Z,61.97
2018-03-17T22:20:37.190Z,64.33
2018-03-17T22:23:03.594Z,62.64
2018-03-17T22:25:29.918Z,62.77
2018-03-17T22:27:56.279Z,64.54
2018-03-17T22:30:22.642Z,64.43
2018-03-17T22:32:48.998Z,61.71
2018-03-17T22:35:15.333Z,62.29
2018-03-17T22:37:41.693Z,62.07
2018-03-17T22:40:08.122Z,61.79
2018-03-17T22:42:34.513Z,63.78
2018-03-17T22:45:00.863Z,61.76
2018-03-17T22:47:27.313Z,61.46
2018-03-17T22:49:53.647Z,62.74
2018-03-17T22:52:20.035Z,63.76
2018-03-17T22:54:46.386Z,61.38
2018-03-17T22:57:12.744Z,61.13
2018-03-17T22:59:39.089Z,62.69
2018-03-17T23:02:05.502Z,63.19
2018-03-17T23:04:31.854Z,62.63
2018-03-17T23:06:58.198Z,61.14
2018-03-17T23:09:24.554Z,60.74
2018-03-17T23:11:50.950Z,61.10
2018-03-17T23:14:17.321Z,60.19
2018-03-17T23:16:43.650Z,60.55
2018-03-17T23:19:10.126Z,60.90
2018-03-17T23:21:36.462Z,62.88
2018-03-17T23:24:02.882Z,61.90
2018-03-17T23:26:29.226Z,60.62
2018-03-17T23:28:55.678Z,63.23
2018-03-17T23:31:22.067Z,63.05
2018-03-17T23:33:48.445Z,62.60
2018-03-17T23:36:14.841Z,62.60
2018-03-17T23:38:41.238Z,63.68
2018-03-17T23:41:07.614Z,61.56
2018-03-17T23:43:34.026Z,63.18
2018-03-17T23:46:00.427Z,63.61
2018-03-17T23:48:26.841Z,63.25
2018-03-17T23:50:53.315Z,62.69
2018-03-17T23:53:19.710Z,63.88
2018-03-17T23:55:46.101Z,62.81
2018-03-17T23:58:12.535Z,64.63
